Time;durP1;ratioP1;P1;durP2;ratioP2;P2;SDS_P1;SDS_P2;PMS_P1;PMS_P2;Temp;Humidity;BMP_temperature;BMP_pressure;BME280_temperature;BME280_humidity;BME280_pressure;Samples;Min_cycle;Max_cycle;Signal;HPM_P1;HPM_P2
2022/11/04 00:01:29;;;;;;;;;;;;;;;21.36;49.59;99830.59;5120728;27;19935;-37
2022/11/04 00:03:55;;;;;;;;;;;;;;;21.36;49.58;99833.38;5140874;27;19923;-37
2022/11/04 00:06:20;;;;;;;;;;;;;;;21.35;49.56;99840.06;5136498;27;19946;-37
2022/11/04 00:08:48;;;;;;;;;;;;;;;21.36;49.66;99844.44;5140312;27;19928;-37
2022/11/04 00:13:59;;;;;;;;;;;;;;;21.35;49.53;99847.56;5121368;27;20021;-37
2022/11/04 00:19:10;;;;;;;;;;;;;;;21.36;49.53;99849.19;5122495;27;20461;-37
2022/11/04 00:29:53;;;;;;;;;;;;;;;21.35;49.65;99878.03;5104640;27;19973;-37
2022/11/04 00:35:04;;;;;;;;;;;;;;;21.33;49.63;99881.13;5122647;27;19991;-37
2022/11/04 00:37:30;;;;;;;;;;;;;;;21.32;49.65;99876.69;5137317;27;19923;-37
2022/11/04 00:39:55;;;;;;;;;;;;;;;21.33;49.70;99888.59;5139765;27;19942;-37
2022/11/04 00:42:21;;;;;;;;;;;;;;;21.33;49.34;99883.88;5138215;27;19931;-37
2022/11/04 00:44:46;;;;;;;;;;;;;;;21.34;49.62;99881.94;5133605;27;19996;-37
2022/11/04 00:47:12;;;;;;;;;;;;;;;21.33;49.59;99883.03;5137040;27;19923;-37
2022/11/04 00:49:38;;;;;;;;;;;;;;;21.33;49.59;99888.59;5139444;27;19923;-37
2022/11/04 00:52:03;;;;;;;;;;;;;;;21.32;49.67;99893.31;5141897;27;20316;-37
2022/11/04 00:54:29;;;;;;;;;;;;;;;21.33;49.64;99897.75;5132585;27;19942;-37
2022/11/04 00:56:55;;;;;;;;;;;;;;;21.33;49.65;99896.88;5139498;27;19934;-37
2022/11/04 00:59:20;;;;;;;;;;;;;;;21.32;49.58;99885.00;5138928;27;20032;-37
2022/11/04 01:01:46;;;;;;;;;;;;;;;21.32;49.60;99893.31;5134946;27;19938;-37
2022/11/04 01:04:11;;;;;;;;;;;;;;;21.33;49.60;99899.66;5138123;27;19923;-37
2022/11/04 01:06:37;;;;;;;;;;;;;;;21.32;49.61;99898.03;5136455;27;19927;-37
2022/11/04 01:09:04;;;;;;;;;;;;;;;21.32;49.51;99907.16;5134171;27;19996;-37
2022/11/04 01:11:30;;;;;;;;;;;;;;;21.32;49.74;99911.88;5122803;27;19923;-37
2022/11/04 01:13:56;;;;;;;;;;;;;;;21.32;49.59;99914.66;5133855;27;19947;-37
2022/11/04 01:16:22;;;;;;;;;;;;;;;21.30;49.66;99921.31;5137134;27;19935;-37
2022/11/04 01:18:47;;;;;;;;;;;;;;;21.31;49.59;99922.13;5142267;27;19924;-37
2022/11/04 01:21:13;;;;;;;;;;;;;;;21.32;49.68;99939.56;5133981;27;19927;-37
2022/11/04 01:23:39;;;;;;;;;;;;;;;21.31;49.65;99938.72;5142335;27;19923;-37
2022/11/04 01:26:05;;;;;;;;;;;;;;;21.31;49.70;99938.72;5117547;27;19970;-37
2022/11/04 01:28:31;;;;;;;;;;;;;;;21.30;49.63;99950.94;5119653;27;19927;-37
2022/11/04 01:30:56;;;;;;;;;;;;;;;21.30;49.69;99942.66;5134733;27;19938;-37
2022/11/04 01:33:23;;;;;;;;;;;;;;;21.29;49.66;99947.38;5137387;27;20000;-36
2022/11/04 01:35:49;;;;;;;;;;;;;;;21.30;49.68;99953.72;5137865;27;20018;-37
2022/11/04 01:38:15;;;;;;;;;;;;;;;21.30;49.55;99954.53;5122792;27;19924;-37
2022/11/04 01:40:40;;;;;;;;;;;;;;;21.30;49.64;99950.94;5123794;27;20453;-37
2022/11/04 01:43:11;;;;;;;;;;;;;;;21.30;49.53;99960.06;5143892;27;19935;-37
2022/11/04 01:45:37;;;;;;;;;;;;;;;21.30;49.60;99957.31;5119103;27;19970;-37
2022/11/04 01:48:04;;;;;;;;;;;;;;;21.30;49.67;99953.72;5137441;27;19931;-37
2022/11/04 01:50:31;;;;;;;;;;;;;;;21.28;49.69;99945.72;5141525;27;20006;-37
2022/11/04 01:52:59;;;;;;;;;;;;;;;21.30;49.49;99950.94;5121180;27;19974;-37
2022/11/04 01:55:26;;;;;;;;;;;;;;;21.30;49.43;99957.31;5133950;27;20014;-37
2022/11/04 01:57:52;;;;;;;;;;;;;;;21.30;49.62;99953.72;5135520;27;20031;-37
2022/11/04 02:00:18;;;;;;;;;;;;;;;21.29;49.64;99963.97;5138055;27;20046;-37
2022/11/04 02:03:03;;;;;;;;;;;;;;;21.29;49.68;99968.72;5117954;27;21036;-36
2022/11/04 02:05:29;;;;;;;;;;;;;;;21.30;49.50;99976.69;5122523;27;20362;-37
2022/11/04 02:07:56;;;;;;;;;;;;;;;21.29;49.70;99974.25;5121633;27;20530;-37
2022/11/04 02:10:23;;;;;;;;;;;;;;;21.28;49.55;99973.41;5141667;27;19977;-37
2022/11/04 02:12:49;;;;;;;;;;;;;;;21.29;49.61;99980.59;5118636;27;19975;-37
2022/11/04 02:15:16;;;;;;;;;;;;;;;21.29;49.54;99983.38;5141877;27;19923;-37
2022/11/04 02:18:01;;;;;;;;;;;;;;;21.29;49.51;99977.84;5139030;27;19970;-37
2022/11/04 02:20:47;;;;;;;;;;;;;;;21.29;49.54;99975.06;5123619;27;20045;-37
2022/11/04 02:23:21;;;;;;;;;;;;;;;21.28;49.51;99973.41;5127044;27;19954;-37
2022/11/04 02:26:07;;;;;;;;;;;;;;;21.27;49.55;99969.00;5141347;27;20023;-37
2022/11/04 02:28:52;;;;;;;;;;;;;;;21.28;49.55;99967.06;5123125;27;19973;-37
2022/11/04 02:31:24;;;;;;;;;;;;;;;21.28;49.48;99964.28;5124546;27;20006;-37
2022/11/04 02:33:52;;;;;;;;;;;;;;;21.27;49.69;99959.88;5138294;27;19977;-37
2022/11/04 02:36:29;;;;;;;;;;;;;;;21.26;49.64;99970.16;5122559;27;19970;-37
2022/11/04 02:39:05;;;;;;;;;;;;;;;21.26;49.79;99970.16;5137613;27;19980;-37
2022/11/04 02:41:36;;;;;;;;;;;;;;;21.26;49.65;99959.06;5140719;27;19955;-37
2022/11/04 02:44:08;;;;;;;;;;;;;;;21.26;49.65;99961.84;5143612;27;19969;-38
2022/11/04 02:46:34;;;;;;;;;;;;;;;21.26;49.64;99966.56;5136114;27;19931;-37
2022/11/04 02:49:02;;;;;;;;;;;;;;;21.27;49.55;99965.44;5143817;27;20061;-37
2022/11/04 02:51:31;;;;;;;;;;;;;;;21.26;49.66;99967.38;5120395;27;20025;-38
2022/11/04 02:53:59;;;;;;;;;;;;;;;21.28;49.63;99967.06;5140277;27;19959;-37
2022/11/04 02:56:25;;;;;;;;;;;;;;;21.28;49.50;99964.28;5139515;27;20026;-37
2022/11/04 02:58:52;;;;;;;;;;;;;;;21.26;49.52;99959.06;5141426;27;20648;-37
2022/11/04 03:01:18;;;;;;;;;;;;;;;21.28;49.61;99964.28;5115713;27;19973;-37
2022/11/04 03:03:46;;;;;;;;;;;;;;;21.27;49.75;99963.47;5119991;27;19932;-37
2022/11/04 03:06:11;;;;;;;;;;;;;;;21.26;49.58;99959.06;5140385;27;20351;-37
2022/11/04 03:08:38;;;;;;;;;;;;;;;21.26;49.63;99961.84;5141072;27;19931;-37
2022/11/04 03:11:05;;;;;;;;;;;;;;;21.26;49.49;99953.53;5137669;27;19954;-37
2022/11/04 03:13:32;;;;;;;;;;;;;;;21.26;49.63;99958.25;5142528;27;19962;-37
2022/11/04 03:15:59;;;;;;;;;;;;;;;21.27;49.56;99959.88;5138089;27;19963;-37
2022/11/04 03:18:33;;;;;;;;;;;;;;;21.26;49.66;99956.31;5122177;27;19973;-37
2022/11/04 03:21:00;;;;;;;;;;;;;;;21.25;49.58;99959.41;5138165;27;20022;-37
2022/11/04 03:23:26;;;;;;;;;;;;;;;21.26;49.71;99961.84;5120995;27;20021;-37
2022/11/04 03:25:52;;;;;;;;;;;;;;;21.25;49.55;99965.75;5137947;27;19991;-38
2022/11/04 03:28:36;;;;;;;;;;;;;;;21.25;49.64;99964.94;5119353;27;19931;-37
2022/11/04 03:31:02;;;;;;;;;;;;;;;21.25;49.66;99962.97;5137965;27;20413;-37
2022/11/04 03:33:45;;;;;;;;;;;;;;;21.25;49.65;99964.94;5137629;27;20382;-37
2022/11/04 03:36:10;;;;;;;;;;;;;;;21.25;49.59;99962.19;5142130;27;20310;-37
2022/11/04 03:38:36;;;;;;;;;;;;;;;21.24;49.64;99964.13;5133869;27;19924;-37
2022/11/04 03:41:02;;;;;;;;;;;;;;;21.25;49.64;99971.28;5139702;27;19983;-37
2022/11/04 03:43:27;;;;;;;;;;;;;;;21.24;49.55;99968.81;5137629;27;19931;-37
2022/11/04 03:45:53;;;;;;;;;;;;;;;21.25;49.63;99973.25;5117360;27;20328;-37
2022/11/04 03:48:19;;;;;;;;;;;;;;;21.25;49.61;99964.94;5121849;27;20036;-37
2022/11/04 03:50:46;;;;;;;;;;;;;;;21.24;49.72;99971.59;5118067;27;19923;-37
2022/11/04 03:53:12;;;;;;;;;;;;;;;21.24;49.56;99972.44;5137077;27;19993;-37
2022/11/04 03:55:45;;;;;;;;;;;;;;;21.23;49.66;99976.31;5139162;27;20014;-37
2022/11/04 03:58:17;;;;;;;;;;;;;;;21.23;49.65;99973.53;5135942;27;20812;-37
2022/11/04 04:00:51;;;;;;;;;;;;;;;21.23;49.66;99981.03;5138433;27;20326;-37
2022/11/04 04:03:20;;;;;;;;;;;;;;;21.23;49.48;99979.09;5135819;27;20038;-37
2022/11/04 04:05:51;;;;;;;;;;;;;;;21.23;49.79;99987.41;5122494;27;19961;-36
2022/11/04 04:08:19;;;;;;;;;;;;;;;21.23;49.64;99978.28;5121657;27;20566;-37
2022/11/04 04:10:51;;;;;;;;;;;;;;;21.22;49.69;99974.69;5137694;27;19950;-37
2022/11/04 04:13:22;;;;;;;;;;;;;;;21.22;49.76;99969.16;5139968;27;19974;-37
2022/11/04 04:15:50;;;;;;;;;;;;;;;21.23;49.77;99970.78;5119382;27;20059;-39
2022/11/04 04:18:17;;;;;;;;;;;;;;;21.23;49.65;99969.97;5139991;27;19923;-37
2022/11/04 04:20:45;;;;;;;;;;;;;;;21.22;49.70;99965.56;5134595;27;20023;-37
2022/11/04 04:28:45;;;;;;;;;;;;;;;21.23;49.67;99972.72;5122779;27;20053;-37
2022/11/04 04:31:11;;;;;;;;;;;;;;;21.22;49.70;99984.94;5140903;27;19927;-36
2022/11/04 04:33:37;;;;;;;;;;;;;;;21.22;49.82;99993.25;5134669;27;20308;-37
2022/11/04 04:36:02;;;;;;;;;;;;;;;21.22;49.69;99988.53;5140943;27;19923;-37
2022/11/04 04:46:56;;;;;;;;;;;;;;;21.21;49.78;99999.94;5125827;27;19938;-36
2022/11/04 04:49:22;;;;;;;;;;;;;;;21.22;49.62;99990.50;5138121;27;19923;-37
2022/11/04 04:51:47;;;;;;;;;;;;;;;21.21;49.77;99997.16;5137707;27;19928;-37
2022/11/04 04:54:13;;;;;;;;;;;;;;;21.21;49.79;99992.44;5133747;27;20368;-37
2022/11/04 04:56:38;;;;;;;;;;;;;;;21.22;49.66;99998.78;5135550;27;19958;-37
2022/11/04 04:59:04;;;;;;;;;;;;;;;21.21;49.71;100000.75;5120168;27;20363;-37
2022/11/04 05:01:30;;;;;;;;;;;;;;;21.21;49.58;100003.53;5137683;27;19931;-37
2022/11/04 05:03:56;;;;;;;;;;;;;;;21.21;49.77;100002.72;5136861;27;19935;-37
2022/11/04 05:06:21;;;;;;;;;;;;;;;21.20;49.71;99998.28;5136421;27;19923;-37
2022/11/04 05:08:47;;;;;;;;;;;;;;;21.21;49.75;100002.72;5138933;27;20374;-37
2022/11/04 05:11:12;;;;;;;;;;;;;;;21.21;49.68;100000.75;5137970;27;19932;-37
2022/11/04 05:13:38;;;;;;;;;;;;;;;21.19;49.76;99994.69;5139719;27;19931;-37
2022/11/04 05:16:04;;;;;;;;;;;;;;;21.19;49.84;99997.47;5140441;27;20417;-37
2022/11/04 05:18:30;;;;;;;;;;;;;;;21.19;49.78;100004.97;5143254;27;19962;-36
2022/11/04 05:20:55;;;;;;;;;;;;;;;21.19;49.72;100000.22;5122867;27;19976;-37
2022/11/04 05:23:21;;;;;;;;;;;;;;;21.19;49.78;100011.31;5144558;27;20290;-37
2022/11/04 05:25:46;;;;;;;;;;;;;;;21.19;49.83;100005.78;5141688;27;19988;-37
2022/11/04 05:28:12;;;;;;;;;;;;;;;21.20;49.80;100006.59;5142983;27;19923;-37
2022/11/04 05:30:37;;;;;;;;;;;;;;;21.20;49.92;100006.59;5121858;27;20293;-37
2022/11/04 05:33:03;;;;;;;;;;;;;;;21.19;49.71;100010.50;5139604;27;19946;-37
2022/11/04 05:35:31;;;;;;;;;;;;;;;21.19;49.72;100013.25;5141485;27;19935;-37
2022/11/04 05:37:56;;;;;;;;;;;;;;;21.19;49.81;100004.97;5117990;27;19923;-37
2022/11/04 05:40:22;;;;;;;;;;;;;;;21.19;49.56;100008.53;5136776;27;19930;-37
2022/11/04 05:42:47;;;;;;;;;;;;;;;21.19;49.80;100002.19;5139837;27;20327;-37
2022/11/04 05:45:13;;;;;;;;;;;;;;;21.18;49.83;100020.75;5138517;27;20454;-37
2022/11/04 05:47:38;;;;;;;;;;;;;;;21.18;49.75;100008.88;5140155;27;19923;-38
2022/11/04 05:50:04;;;;;;;;;;;;;;;21.18;49.86;100008.88;5134378;27;19923;-37
2022/11/04 05:52:30;;;;;;;;;;;;;;;21.18;49.85;100006.09;5135580;27;19939;-38
2022/11/04 05:54:55;;;;;;;;;;;;;;;21.17;49.88;100013.59;5136597;27;20026;-37
2022/11/04 05:57:21;;;;;;;;;;;;;;;21.18;49.30;100014.41;5137946;27;20454;-37
2022/11/04 05:59:46;;;;;;;;;;;;;;;21.18;49.58;100019.94;5122946;27;19931;-37
2022/11/04 06:02:12;;;;;;;;;;;;;;;21.18;48.77;100026.28;5137738;27;19923;-37
2022/11/04 06:04:38;;;;;;;;;;;;;;;21.17;48.48;100016.38;5135463;27;20397;-37
2022/11/04 06:07:03;;;;;;;;;;;;;;;21.17;48.38;100018.31;5141208;27;19927;-37
2022/11/04 06:09:44;;;;;;;;;;;;;;;21.17;48.05;100013.59;5139682;27;19970;-37
2022/11/04 06:12:10;;;;;;;;;;;;;;;21.18;47.92;100017.19;5138264;27;19978;-37
2022/11/04 06:14:36;;;;;;;;;;;;;;;21.17;48.38;100023.84;5138309;27;20458;-37
2022/11/04 06:17:02;;;;;;;;;;;;;;;21.17;48.20;100021.09;5137207;27;19931;-37
2022/11/04 06:19:27;;;;;;;;;;;;;;;21.16;48.86;100039.66;5135895;27;19934;-37
2022/11/04 06:21:53;;;;;;;;;;;;;;;21.17;49.13;100041.28;5144141;27;20292;-37
2022/11/04 06:24:19;;;;;;;;;;;;;;;21.16;49.06;100044.38;5141712;27;19930;-37
2022/11/04 06:26:44;;;;;;;;;;;;;;;21.14;48.90;100049.41;5119749;27;19923;-37
2022/11/04 06:29:10;;;;;;;;;;;;;;;21.15;49.13;100060.13;5139464;27;19966;-37
2022/11/04 06:31:36;;;;;;;;;;;;;;;21.15;49.12;100054.59;5118343;27;20051;-37
2022/11/04 06:34:01;;;;;;;;;;;;;;;21.15;48.92;100065.69;5139274;27;19923;-37
2022/11/04 06:36:27;;;;;;;;;;;;;;;21.16;49.40;100066.53;5138453;27;20011;-37
2022/11/04 06:38:52;;;;;;;;;;;;;;;20.87;48.93;100072.47;5139367;27;20010;-37
2022/11/04 06:41:18;;;;;;;;;;;;;;;20.54;49.65;100072.66;5135017;27;19931;-38
2022/11/04 06:43:43;;;;;;;;;;;;;;;20.43;48.82;100083.09;5137055;27;19931;-37
2022/11/04 06:46:29;;;;;;;;;;;;;;;20.42;49.59;100078.72;5125767;27;19931;-37
2022/11/04 06:48:55;;;;;;;;;;;;;;;20.27;48.85;100088.13;5116036;27;20045;-37
2022/11/04 06:51:20;;;;;;;;;;;;;;;19.88;48.88;100088.66;5112655;27;19923;-37
2022/11/04 06:53:46;;;;;;;;;;;;;;;19.64;49.04;100093.50;5133423;27;19931;-37
2022/11/04 06:56:11;;;;;;;;;;;;;;;19.83;48.63;100096.22;5126823;27;20405;-37
2022/11/04 06:58:37;;;;;;;;;;;;;;;20.13;48.36;100090.09;5134392;27;20011;-38
2022/11/04 07:01:03;;;;;;;;;;;;;;;20.13;47.76;100094.81;5132096;27;19931;-36
2022/11/04 07:03:37;;;;;;;;;;;;;;;20.50;47.41;100088.22;5108379;27;19984;-37
2022/11/04 07:06:05;;;;;;;;;;;;;;;20.71;47.21;100088.59;5127244;27;19944;-38
2022/11/04 07:08:30;;;;;;;;;;;;;;;20.81;47.38;100085.59;5109000;27;20038;-37
2022/11/04 07:10:56;;;;;;;;;;;;;;;20.86;47.00;100090.22;5129720;27;20397;-42
2022/11/04 07:13:21;;;;;;;;;;;;;;;20.95;47.86;100094.69;5131902;27;19927;-41
2022/11/04 07:15:47;;;;;;;;;;;;;;;21.02;47.86;100103.38;5135754;27;20620;-40
2022/11/04 07:18:12;;;;;;;;;;;;;;;21.09;48.21;100100.19;5129920;27;19932;-38
2022/11/04 07:20:39;;;;;;;;;;;;;;;21.14;48.80;100102.00;5133243;27;19973;-39
2022/11/04 07:23:04;;;;;;;;;;;;;;;21.11;48.78;100102.63;5134222;27;19970;-37
2022/11/04 07:25:30;;;;;;;;;;;;;;;21.12;47.65;100104.28;5130190;27;19927;-37
2022/11/04 07:27:55;;;;;;;;;;;;;;;21.11;47.76;100116.47;5137460;27;19992;-37
2022/11/04 07:30:27;;;;;;;;;;;;;;;21.07;47.47;100115.44;5133785;27;19923;-37
2022/11/04 07:32:52;;;;;;;;;;;;;;;21.08;48.09;100120.69;5135516;27;19930;-37
2022/11/04 07:35:18;;;;;;;;;;;;;;;21.08;47.90;100129.00;5128388;27;19976;-38
2022/11/04 07:37:44;;;;;;;;;;;;;;;21.08;47.70;100136.50;5136373;27;20816;-37
2022/11/04 07:40:09;;;;;;;;;;;;;;;21.07;48.04;100127.38;5136239;27;19930;-37
2022/11/04 07:42:35;;;;;;;;;;;;;;;21.09;47.63;100149.19;5131052;27;19923;-37
2022/11/04 07:45:00;;;;;;;;;;;;;;;21.08;47.51;100140.06;5134637;27;20385;-37
2022/11/04 07:47:28;;;;;;;;;;;;;;;21.08;47.66;100153.91;5138312;27;19931;-37
2022/11/04 07:49:54;;;;;;;;;;;;;;;21.09;47.73;100157.50;5138695;27;19931;-37
2022/11/04 07:52:19;;;;;;;;;;;;;;;21.09;47.77;100160.25;5137905;27;19948;-37
2022/11/04 07:54:45;;;;;;;;;;;;;;;21.09;47.48;100168.56;5136675;27;19927;-37
2022/11/04 07:57:10;;;;;;;;;;;;;;;21.10;47.76;100173.78;5132222;27;19953;-37
2022/11/04 07:59:36;;;;;;;;;;;;;;;21.10;47.86;100186.81;5129336;27;19935;-39
2022/11/04 08:02:01;;;;;;;;;;;;;;;21.11;48.06;100192.03;5119300;27;19954;-37
2022/11/04 08:04:27;;;;;;;;;;;;;;;21.11;48.06;100183.72;5118171;27;19942;-38
2022/11/04 08:06:53;;;;;;;;;;;;;;;21.12;48.13;100187.34;5100701;27;20329;-37
2022/11/04 08:09:18;;;;;;;;;;;;;;;21.11;47.93;100189.25;5123537;27;19930;-37
2022/11/04 08:11:44;;;;;;;;;;;;;;;21.12;48.23;100182.63;5128091;27;19923;-37
2022/11/04 08:14:10;;;;;;;;;;;;;;;21.12;48.06;100184.56;5131549;27;19934;-37
2022/11/04 08:16:35;;;;;;;;;;;;;;;21.12;48.21;100187.34;5126676;27;20649;-37
2022/11/04 08:19:01;;;;;;;;;;;;;;;21.11;48.13;100192.03;5132370;27;20443;-37
2022/11/04 08:21:27;;;;;;;;;;;;;;;21.12;48.22;100184.56;5130950;27;19949;-38
2022/11/04 08:23:53;;;;;;;;;;;;;;;21.12;48.08;100192.88;5135695;27;20081;-37
2022/11/04 08:26:19;;;;;;;;;;;;;;;21.13;47.81;100194.50;5136363;27;20425;-38
2022/11/04 08:28:45;;;;;;;;;;;;;;;20.83;47.23;100188.50;5117944;27;19931;-38
2022/11/04 08:31:14;;;;;;;;;;;;;;;20.71;48.32;100197.31;5129056;27;19975;-38
2022/11/04 08:33:39;;;;;;;;;;;;;;;20.94;47.78;100195.47;5131960;27;20373;-38
2022/11/04 08:36:11;;;;;;;;;;;;;;;21.04;47.82;100189.69;5132981;27;19963;-38
2022/11/04 08:38:37;;;;;;;;;;;;;;;21.09;47.76;100187.94;5132136;27;19927;-39
2022/11/04 08:41:03;;;;;;;;;;;;;;;21.09;47.65;100188.75;5135304;27;20790;-38
2022/11/04 08:43:29;;;;;;;;;;;;;;;21.11;47.57;100185.69;5130505;27;20015;-38
2022/11/04 08:45:55;;;;;;;;;;;;;;;21.00;47.30;100190.63;5125052;27;20074;-38
2022/11/04 08:48:20;;;;;;;;;;;;;;;21.10;47.47;100190.41;5134209;27;19934;-38
2022/11/04 08:50:47;;;;;;;;;;;;;;;20.94;47.74;100194.63;5133604;27;20000;-38
2022/11/04 08:53:13;;;;;;;;;;;;;;;21.08;47.54;100194.63;5132991;27;20054;-38
2022/11/04 08:55:38;;;;;;;;;;;;;;;21.12;47.32;100196.47;5130631;27;19923;-38
2022/11/04 08:58:04;;;;;;;;;;;;;;;21.13;47.78;100198.09;5138509;27;19931;-39
2022/11/04 09:00:31;;;;;;;;;;;;;;;21.13;47.63;100198.09;5134701;27;20419;-38
2022/11/04 09:02:57;;;;;;;;;;;;;;;21.15;47.74;100195.81;5110009;27;20065;-38
2022/11/04 09:05:23;;;;;;;;;;;;;;;21.16;47.73;100202.19;5104922;27;20398;-38
2022/11/04 09:07:48;;;;;;;;;;;;;;;21.16;47.82;100203.00;5118638;27;19927;-38
2022/11/04 09:10:14;;;;;;;;;;;;;;;21.17;47.89;100203.81;5118158;27;19927;-38
2022/11/04 09:12:40;;;;;;;;;;;;;;;21.15;47.88;100201.34;5123868;27;20003;-39
2022/11/04 09:15:06;;;;;;;;;;;;;;;21.17;47.87;100210.19;5121302;27;19931;-38
2022/11/04 09:17:32;;;;;;;;;;;;;;;21.17;47.89;100215.72;5124571;27;19984;-38
2022/11/04 09:19:57;;;;;;;;;;;;;;;21.18;47.94;100213.75;5132012;27;19935;-38
2022/11/04 09:22:23;;;;;;;;;;;;;;;21.16;47.65;100213.28;5132391;27;19924;-38
2022/11/04 09:24:49;;;;;;;;;;;;;;;21.15;47.87;100206.06;5130509;27;19954;-38
2022/11/04 09:27:14;;;;;;;;;;;;;;;21.16;47.70;100207.72;5117686;27;19931;-38
2022/11/04 09:29:40;;;;;;;;;;;;;;;21.15;47.57;100208.84;5136919;27;20018;-38
2022/11/04 09:32:06;;;;;;;;;;;;;;;21.16;47.82;100210.50;5133347;27;19923;-39
2022/11/04 09:34:31;;;;;;;;;;;;;;;21.17;47.84;100212.94;5128380;27;20349;-38
2022/11/04 09:36:57;;;;;;;;;;;;;;;21.19;47.91;100210.69;5110637;27;20531;-38
2022/11/04 09:39:23;;;;;;;;;;;;;;;21.17;47.80;100203.81;5116215;27;19936;-38
2022/11/04 09:42:09;;;;;;;;;;;;;;;21.17;47.28;100203.81;5120304;27;20587;-38
2022/11/04 09:44:39;;;;;;;;;;;;;;;21.16;47.80;100196.66;5112610;27;20033;-38
2022/11/04 09:47:24;;;;;;;;;;;;;;;21.15;46.75;100206.06;5115452;27;20478;-39
2022/11/04 09:49:51;;;;;;;;;;;;;;;21.13;47.04;100191.72;5129124;27;20853;-38
2022/11/04 09:52:18;;;;;;;;;;;;;;;21.13;47.25;100191.72;5126522;27;20018;-39
2022/11/04 09:54:47;;;;;;;;;;;;;;;21.12;46.81;100204.75;5128499;27;20014;-38
2022/11/04 09:57:15;;;;;;;;;;;;;;;21.12;46.74;100201.19;5131149;27;19987;-38
2022/11/04 09:59:41;;;;;;;;;;;;;;;21.08;46.04;100211.25;5127953;27;20117;-38
2022/11/04 10:02:12;;;;;;;;;;;;;;;21.12;46.96;100218.59;5137643;27;20462;-38
2022/11/04 10:04:49;;;;;;;;;;;;;;;21.12;46.97;100218.59;5131876;27;19931;-38
2022/11/04 10:07:21;;;;;;;;;;;;;;;21.14;47.28;100221.88;5134035;27;19927;-38
2022/11/04 10:09:50;;;;;;;;;;;;;;;21.14;47.25;100221.88;5135281;27;20116;-38
2022/11/04 10:12:21;;;;;;;;;;;;;;;21.15;47.35;100225.47;5131727;27;20010;-38
2022/11/04 10:15:07;;;;;;;;;;;;;;;21.15;47.21;100209.66;5127996;27;19934;-38
2022/11/04 10:17:52;;;;;;;;;;;;;;;21.16;47.00;100219.63;5114525;27;20607;-38
2022/11/04 10:20:38;;;;;;;;;;;;;;;21.15;47.31;100217.16;5113448;27;19959;-38
2022/11/04 10:23:14;;;;;;;;;;;;;;;21.16;46.89;100219.63;5114206;27;20086;-38
2022/11/04 10:25:48;;;;;;;;;;;;;;;21.16;46.93;100222.41;5116683;27;20045;-39
2022/11/04 10:28:15;;;;;;;;;;;;;;;21.13;46.70;100216.66;5130853;27;19927;-38
2022/11/04 10:30:40;;;;;;;;;;;;;;;21.12;46.48;100224.16;5129511;27;19931;-38
2022/11/04 10:33:08;;;;;;;;;;;;;;;21.12;46.30;100224.16;5133995;27;19939;-38
2022/11/04 10:35:36;;;;;;;;;;;;;;;21.14;46.54;100221.88;5112325;27;20014;-39
2022/11/04 10:38:12;;;;;;;;;;;;;;;21.14;46.50;100229.38;5104195;27;19998;-39
2022/11/04 10:40:38;;;;;;;;;;;;;;;21.15;46.87;100226.28;5136190;27;19923;-39
2022/11/04 10:43:04;;;;;;;;;;;;;;;21.13;46.81;100222.19;5130193;27;19927;-39
2022/11/04 10:45:30;;;;;;;;;;;;;;;21.17;46.84;100225.97;5123347;27;20670;-38
2022/11/04 10:47:57;;;;;;;;;;;;;;;21.18;47.51;100224.84;5134437;27;19962;-39
2022/11/04 10:50:32;;;;;;;;;;;;;;;21.19;47.33;100232.00;5113610;27;20070;-39
2022/11/04 10:53:01;;;;;;;;;;;;;;;21.19;47.23;100232.00;5139905;27;19931;-38
2022/11/04 10:55:29;;;;;;;;;;;;;;;21.24;47.59;100231.88;5112497;27;20029;-38
2022/11/04 10:57:56;;;;;;;;;;;;;;;21.32;47.93;100244.22;5134249;27;20007;-39
2022/11/04 11:00:38;;;;;;;;;;;;;;;21.28;47.21;100247.56;5115458;27;20279;-38
2022/11/04 11:03:24;;;;;;;;;;;;;;;21.26;47.18;100249.84;5115470;27;20009;-38
2022/11/04 11:05:50;;;;;;;;;;;;;;;21.24;47.32;100259.59;5120480;27;20015;-38
2022/11/04 11:08:32;;;;;;;;;;;;;;;21.21;47.05;100260.22;5114503;27;19977;-39
2022/11/04 11:10:57;;;;;;;;;;;;;;;21.20;46.93;100267.72;5121380;27;20437;-39
2022/11/04 11:13:25;;;;;;;;;;;;;;;21.25;47.57;100267.59;5119640;27;19923;-37
2022/11/04 11:16:02;;;;;;;;;;;;;;;21.30;47.23;100274.97;5120313;27;20502;-37
2022/11/04 11:18:28;;;;;;;;;;;;;;;21.28;47.12;100269.72;5138672;27;19931;-37
2022/11/04 11:21:14;;;;;;;;;;;;;;;21.26;47.11;100272.00;5138366;27;19934;-36
2022/11/04 11:23:41;;;;;;;;;;;;;;;21.23;46.81;100272.63;5119162;27;19959;-37
2022/11/04 11:26:08;;;;;;;;;;;;;;;21.21;47.18;100277.66;5114540;27;19950;-37
2022/11/04 11:28:37;;;;;;;;;;;;;;;21.22;47.08;100278.47;5116785;27;20020;-37
2022/11/04 11:31:06;;;;;;;;;;;;;;;21.00;46.57;100281.97;5136562;27;19963;-37
2022/11/04 11:33:32;;;;;;;;;;;;;;;21.14;46.17;100288.31;5130641;27;19967;-36
2022/11/04 11:36:00;;;;;;;;;;;;;;;21.19;46.49;100290.97;5108761;27;20013;-36
2022/11/04 11:38:26;;;;;;;;;;;;;;;21.22;46.76;100298.66;5108666;27;20066;-36
2022/11/04 11:40:54;;;;;;;;;;;;;;;21.17;47.13;100300.75;5116329;27;20038;-36
2022/11/04 11:43:41;;;;;;;;;;;;;;;21.16;47.30;100299.94;5111001;27;19931;-38
2022/11/04 11:46:07;;;;;;;;;;;;;;;21.23;47.37;100310.56;5120895;27;20375;-37
2022/11/04 11:48:41;;;;;;;;;;;;;;;21.23;47.55;100313.34;5125774;27;19927;-37
2022/11/04 11:51:09;;;;;;;;;;;;;;;21.22;47.55;100309.75;5101593;27;20205;-37
2022/11/04 11:53:37;;;;;;;;;;;;;;;21.23;47.89;100316.91;5107635;27;20033;-37
2022/11/04 11:56:22;;;;;;;;;;;;;;;21.21;48.10;100310.06;5134743;27;20043;-36
2022/11/04 11:58:50;;;;;;;;;;;;;;;21.21;47.83;100312.84;5132548;27;20023;-36
2022/11/04 12:01:41;;;;;;;;;;;;;;;21.22;47.84;100311.69;5114772;27;19942;-36
2022/11/04 12:04:07;;;;;;;;;;;;;;;21.23;48.00;100302.25;5131440;27;19923;-37
2022/11/04 12:06:55;;;;;;;;;;;;;;;21.25;47.88;100309.13;5116576;27;20402;-37
2022/11/04 12:12:32;;;;;;;;;;;;;;;21.23;47.70;100313.34;5143904;27;19933;-35
2022/11/04 12:15:17;;;;;;;;;;;;;;;21.23;47.80;100308.63;5130993;27;20367;-34
2022/11/04 12:17:49;;;;;;;;;;;;;;;21.20;47.71;100319.47;5117476;27;20314;-35
2022/11/04 12:23:18;;;;;;;;;;;;;;;21.22;47.81;100318.06;5153985;27;19930;-35
2022/11/04 12:26:04;;;;;;;;;;;;;;;21.26;47.72;100315.50;5137207;27;20009;-35
2022/11/04 12:28:35;;;;;;;;;;;;;;;21.26;47.85;100319.09;5134033;27;20018;-35
2022/11/04 12:31:20;;;;;;;;;;;;;;;21.26;48.05;100321.84;5144488;27;20026;-35
2022/11/04 12:33:58;;;;;;;;;;;;;;;21.26;48.17;100309.97;5127582;27;20271;-35
2022/11/04 12:36:30;;;;;;;;;;;;;;;21.28;48.27;100310.44;5144010;27;19928;-34
2022/11/04 12:38:59;;;;;;;;;;;;;;;21.27;48.22;100306.88;5148919;27;20039;-35
2022/11/04 12:41:34;;;;;;;;;;;;;;;21.26;48.02;100299.69;5149134;27;19923;-35
2022/11/04 12:47:01;;;;;;;;;;;;;;;21.26;48.17;100304.41;5156338;27;19933;-35
2022/11/04 12:49:37;;;;;;;;;;;;;;;21.27;48.11;100311.59;5147397;27;20026;-34
2022/11/04 12:52:08;;;;;;;;;;;;;;;21.27;48.05;100311.59;5158655;27;20386;-36
2022/11/04 12:54:40;;;;;;;;;;;;;;;21.26;47.90;100313.53;5146889;27;20026;-36
2022/11/04 12:57:11;;;;;;;;;;;;;;;21.26;48.12;100313.53;5144501;27;20112;-36
2022/11/04 12:59:47;;;;;;;;;;;;;;;21.26;48.13;100326.56;5142423;27;20335;-36
2022/11/04 13:02:16;;;;;;;;;;;;;;;21.26;48.07;100324.63;5128625;27;20030;-36
2022/11/04 13:04:47;;;;;;;;;;;;;;;21.24;48.09;100318.59;5129758;27;20049;-35
2022/11/04 13:07:14;;;;;;;;;;;;;;;21.25;48.01;100323.00;5153332;27;20026;-37
2022/11/04 13:09:42;;;;;;;;;;;;;;;21.24;47.98;100326.91;5153879;27;19954;-37
2022/11/04 13:12:16;;;;;;;;;;;;;;;21.24;48.04;100326.91;5151312;27;20003;-36
2022/11/04 13:15:01;;;;;;;;;;;;;;;21.09;48.18;100331.91;5147795;27;19994;-37
2022/11/04 13:17:32;;;;;;;;;;;;;;;21.21;48.03;100333.03;5135595;27;19970;-36
2022/11/04 13:19:59;;;;;;;;;;;;;;;21.25;47.75;100339.59;5131302;27;19962;-36
2022/11/04 13:22:27;;;;;;;;;;;;;;;21.28;47.93;100338.16;5151960;27;20019;-36
2022/11/04 13:24:55;;;;;;;;;;;;;;;21.28;47.89;100347.28;5128143;27;20048;-36
2022/11/04 13:27:21;;;;;;;;;;;;;;;21.29;48.66;100350.88;5131188;27;20471;-35